createdAt,value
2019-06-27T16:41:14.044Z,36.29
2019-06-27T16:44:51.657Z,37.34
2019-06-27T16:47:55.076Z,37.62
2019-06-27T16:51:01.203Z,37.63
2019-06-27T16:54:05.597Z,38.69
2019-06-27T16:57:09.029Z,38.45
2019-06-27T17:00:13.950Z,38.05
2019-06-27T17:03:17.393Z,37.96
2019-06-27T17:06:20.688Z,37.64
2019-06-27T17:09:24.054Z,38.49
2019-06-27T17:12:27.388Z,39.01
2019-06-27T17:15:30.840Z,39.06
2019-06-27T17:18:34.285Z,39.66
2019-06-27T17:21:37.735Z,39.18
2019-06-27T17:24:41.174Z,39.27
2019-06-27T17:27:44.563Z,39.75
2019-06-27T17:30:47.986Z,39.19
2019-06-27T17:33:51.329Z,39.50
2019-06-27T17:36:57.968Z,39.59
2019-06-27T17:39:59.984Z,39.43
2019-06-27T17:43:03.379Z,40.06
2019-06-27T17:46:06.729Z,40.34
2019-06-27T17:49:10.067Z,40.64
2019-06-27T17:52:13.397Z,40.67
2019-06-27T17:55:16.777Z,41.18
2019-06-27T17:58:20.104Z,41.15
2019-06-27T18:01:23.784Z,41.14
2019-06-27T18:04:27.086Z,41.23
2019-06-27T18:07:30.451Z,44.60
2019-06-27T18:10:33.777Z,42.93
2019-06-27T18:13:37.184Z,42.78
2019-06-27T18:16:40.531Z,41.97
2019-06-27T18:19:43.875Z,42.03
2019-06-27T18:22:47.190Z,42.76
2019-06-27T18:25:57.399Z,43.20
2019-06-27T18:29:00.829Z,43.11
2019-06-27T18:32:04.257Z,44.13
2019-06-27T18:35:07.884Z,44.57
2019-06-27T18:38:11.531Z,44.98
2019-06-27T18:41:14.955Z,44.73
2019-06-27T18:44:18.244Z,45.11
2019-06-27T18:47:21.577Z,45.10
2019-06-27T18:50:24.916Z,45.48
2019-06-27T18:53:28.281Z,45.61
2019-06-27T18:56:31.667Z,45.90
2019-06-27T18:59:35.027Z,45.91
2019-06-27T19:02:38.547Z,46.40
2019-06-27T19:05:41.975Z,46.52
2019-06-27T19:08:45.370Z,46.87
2019-06-27T19:11:49.462Z,46.56
2019-06-27T19:14:52.851Z,47.11
2019-06-27T19:17:56.206Z,47.87
2019-06-27T19:21:01.173Z,47.75
2019-06-27T19:24:21.467Z,47.76
2019-06-27T19:27:24.819Z,48.05
2019-06-27T19:30:28.247Z,48.82
2019-06-27T19:33:31.605Z,48.83
2019-06-27T19:36:34.960Z,48.98
2019-06-27T19:39:38.330Z,49.25
2019-06-27T19:42:41.640Z,49.39
2019-06-27T19:45:45.125Z,49.77
2019-06-27T19:48:48.461Z,49.57
2019-06-27T19:51:51.816Z,50.25
2019-06-27T19:54:59.739Z,49.13
2019-06-27T19:58:00.414Z,51.04
2019-06-27T20:01:03.747Z,50.34
2019-06-27T20:04:07.170Z,51.17
2019-06-27T20:07:10.548Z,52.07
2019-06-27T20:10:14.148Z,51.67
2019-06-27T20:13:17.500Z,52.21
2019-06-27T20:16:20.905Z,52.74
2019-06-27T20:19:24.227Z,53.45
2019-06-27T20:22:27.690Z,53.66
2019-06-27T20:25:30.998Z,53.55
2019-06-27T20:28:34.352Z,54.05
2019-06-27T20:31:37.688Z,55.05
2019-06-27T20:34:41.082Z,54.57
2019-06-27T20:37:44.397Z,54.36
2019-06-27T20:40:52.536Z,54.40
2019-06-27T20:43:57.586Z,55.28
2019-06-27T20:47:00.658Z,55.79
2019-06-27T20:50:04.491Z,55.44
2019-06-27T20:53:07.825Z,55.15
2019-06-27T20:56:11.347Z,54.98
2019-06-27T20:59:14.742Z,56.13
2019-06-27T21:02:18.070Z,56.36
2019-06-27T21:05:21.430Z,56.55
2019-06-27T21:08:24.843Z,56.93
2019-06-27T21:11:28.221Z,57.44
2019-06-27T21:14:31.584Z,56.66
2019-06-27T21:17:34.948Z,57.08
2019-06-27T21:20:38.276Z,57.80
2019-06-27T21:23:41.613Z,58.65
2019-06-27T21:26:44.957Z,58.84
2019-06-27T21:29:48.297Z,58.62
2019-06-27T21:32:51.700Z,59.25
2019-06-27T21:35:55.152Z,59.02
2019-06-27T21:39:07.654Z,59.46
2019-06-27T21:42:03.565Z,59.62
2019-06-27T21:45:07.518Z,60.54
2019-06-27T21:48:10.832Z,61.89
2019-06-27T21:51:14.179Z,61.42
2019-06-27T21:54:17.512Z,61.02
2019-06-27T21:57:21.018Z,61.39
2019-06-27T22:00:26.302Z,59.74
2019-06-27T22:03:29.628Z,60.46
2019-06-27T22:06:40.062Z,60.31
2019-06-27T22:09:43.416Z,60.47
2019-06-27T22:12:47.179Z,59.92
2019-06-27T22:15:50.550Z,59.16
2019-06-27T22:18:53.937Z,60.00
2019-06-27T22:21:57.369Z,60.81
2019-06-27T22:25:00.791Z,60.59
2019-06-27T22:28:04.250Z,60.14
2019-06-27T22:31:07.599Z,59.02
2019-06-27T22:34:10.942Z,59.90
2019-06-27T22:37:16.099Z,61.40
2019-06-27T22:40:37.250Z,61.28
2019-06-27T22:43:58.444Z,61.31
2019-06-27T22:47:20.072Z,60.40
2019-06-27T22:50:31.101Z,59.77
2019-06-27T22:53:41.969Z,59.48
2019-06-27T22:56:48.094Z,59.05
2019-06-27T22:59:53.779Z,60.00
2019-06-27T23:02:57.209Z,60.68
2019-06-27T23:06:00.676Z,59.57
2019-06-27T23:09:04.895Z,59.98
2019-06-27T23:12:08.301Z,61.97
2019-06-27T23:15:11.911Z,60.78
2019-06-27T23:18:15.327Z,61.37
2019-06-27T23:21:20.333Z,60.68
2019-06-27T23:24:23.686Z,60.62
2019-06-27T23:27:27.097Z,60.49
2019-06-27T23:30:30.483Z,61.56
2019-06-27T23:33:33.890Z,61.50
2019-06-27T23:36:37.327Z,61.89
2019-06-27T23:39:40.686Z,63.46
2019-06-27T23:42:44.011Z,63.96
2019-06-27T23:45:47.516Z,63.96
2019-06-27T23:48:50.921Z,65.07
2019-06-27T23:51:54.257Z,63.42
2019-06-27T23:54:57.615Z,64.28
2019-06-27T23:58:01.015Z,62.53
